createdAt,value
2023-07-30T00:00:46.710Z,97262.22
2023-07-30T00:03:15.008Z,97262.94
2023-07-30T00:05:45.062Z,97255.09
2023-07-30T00:08:13.283Z,97225.25
2023-07-30T00:10:41.516Z,97252.00
2023-07-30T00:13:09.726Z,97237.41
2023-07-30T00:15:37.979Z,97221.91
2023-07-30T00:18:06.374Z,97234.69
2023-07-30T00:20:36.688Z,97229.81
2023-07-30T00:23:06.367Z,97221.69
2023-07-30T00:25:34.573Z,97215.91
2023-07-30T00:28:02.867Z,97221.44
2023-07-30T00:30:31.095Z,97198.19
2023-07-30T00:32:59.364Z,97224.38
2023-07-30T00:35:27.601Z,97219.41
2023-07-30T00:37:55.862Z,97131.78
2023-07-30T00:40:25.623Z,97184.19
2023-07-30T00:42:53.844Z,97175.59
2023-07-30T00:45:22.195Z,97221.66
2023-07-30T00:47:50.737Z,97228.41
2023-07-30T00:50:19.942Z,97219.59
2023-07-30T00:52:48.282Z,97220.13
2023-07-30T00:55:18.029Z,97215.09
2023-07-30T00:57:48.034Z,97184.06
2023-07-30T01:00:16.658Z,97203.94
2023-07-30T01:02:45.490Z,97196.25
2023-07-30T01:05:13.814Z,97201.78
2023-07-30T01:07:42.010Z,97209.25
2023-07-30T01:10:10.724Z,97214.59
2023-07-30T01:12:39.795Z,97205.19
2023-07-30T01:15:11.809Z,97218.66
2023-07-30T01:17:40.398Z,97220.06
2023-07-30T01:20:10.023Z,97225.38
2023-07-30T01:22:39.707Z,97220.72
2023-07-30T01:25:08.928Z,97219.94
2023-07-30T01:27:42.614Z,97221.34
2023-07-30T01:30:20.383Z,97230.38
2023-07-30T01:32:52.518Z,97217.16
2023-07-30T01:35:22.888Z,97188.84
2023-07-30T01:37:53.949Z,97220.16
2023-07-30T01:40:22.772Z,97173.56
2023-07-30T01:42:51.956Z,97214.22
2023-07-30T01:45:20.216Z,97190.91
2023-07-30T01:47:48.575Z,97241.34
2023-07-30T01:50:16.895Z,97241.63
2023-07-30T01:52:45.119Z,97234.13
2023-07-30T01:55:14.764Z,97243.41
2023-07-30T01:57:43.014Z,97211.88
2023-07-30T02:00:12.176Z,97248.38
2023-07-30T02:02:40.451Z,97238.19
2023-07-30T02:05:08.888Z,97186.66
2023-07-30T02:07:37.137Z,97242.63
2023-07-30T02:10:05.791Z,97241.47
2023-07-30T02:12:35.376Z,97251.59
2023-07-30T02:15:03.675Z,97230.22
2023-07-30T02:17:31.873Z,97245.53
2023-07-30T02:20:00.215Z,97242.09
2023-07-30T02:22:28.692Z,97242.34
2023-07-30T02:24:58.587Z,97236.91
2023-07-30T02:27:26.937Z,97219.94
2023-07-30T02:29:56.638Z,97239.41
2023-07-30T02:32:25.265Z,97141.50
2023-07-30T02:34:53.443Z,97239.13
2023-07-30T02:37:21.641Z,97219.47
2023-07-30T02:39:49.880Z,97224.69
2023-07-30T02:42:18.076Z,97230.41
2023-07-30T02:44:46.396Z,97236.69
2023-07-30T02:47:16.100Z,97243.06
2023-07-30T02:49:44.469Z,97260.53
2023-07-30T02:52:12.795Z,97225.75
2023-07-30T02:54:41.252Z,97236.41
2023-07-30T02:57:09.616Z,97248.94
2023-07-30T02:59:38.708Z,97254.25
2023-07-30T03:02:07.592Z,97227.69
2023-07-30T03:04:37.299Z,97244.78
2023-07-30T03:07:06.009Z,97256.81
2023-07-30T03:09:34.347Z,97256.28
2023-07-30T03:12:02.788Z,97274.91
2023-07-30T03:14:32.142Z,97166.47
2023-07-30T03:17:00.444Z,97269.69
2023-07-30T03:19:28.731Z,97267.13
2023-07-30T03:21:58.352Z,97270.50
2023-07-30T03:24:26.606Z,97267.31
2023-07-30T03:26:54.905Z,97268.50
2023-07-30T03:29:23.156Z,97263.66
2023-07-30T03:31:51.430Z,97209.25
2023-07-30T03:34:19.685Z,97260.16
2023-07-30T03:36:48.126Z,97259.53
2023-07-30T03:39:17.828Z,97259.75
2023-07-30T03:41:46.118Z,97245.19
2023-07-30T03:44:14.358Z,97263.91
2023-07-30T03:46:42.650Z,97260.72
2023-07-30T03:49:10.966Z,97260.72
2023-07-30T03:51:40.153Z,97251.28
2023-07-30T03:54:08.562Z,97255.94
2023-07-30T03:56:38.261Z,97264.00
2023-07-30T03:59:06.447Z,97265.38
2023-07-30T04:01:35.272Z,97231.38
2023-07-30T04:04:03.960Z,97255.47
2023-07-30T04:06:32.268Z,97269.31
2023-07-30T04:09:00.518Z,97263.91
2023-07-30T04:11:28.746Z,97257.81
2023-07-30T04:13:58.412Z,97259.84
2023-07-30T04:16:26.727Z,97272.81
2023-07-30T04:18:55.146Z,97258.69
2023-07-30T04:21:23.441Z,97266.97
2023-07-30T04:23:51.812Z,97265.19
2023-07-30T04:26:20.111Z,97273.38
2023-07-30T04:28:48.343Z,97270.63
2023-07-30T04:31:18.069Z,97270.06
2023-07-30T04:33:46.561Z,97247.72
2023-07-30T04:36:14.847Z,97202.13
2023-07-30T04:38:43.142Z,97257.94
2023-07-30T04:41:11.400Z,97244.88
2023-07-30T04:43:39.627Z,97241.38
2023-07-30T04:46:08.034Z,97238.84
2023-07-30T04:48:37.786Z,97233.97
2023-07-30T04:51:06.172Z,97210.25
2023-07-30T04:53:34.569Z,97234.69
2023-07-30T04:56:02.845Z,97193.56
2023-07-30T04:58:31.175Z,97228.09
2023-07-30T05:00:59.447Z,97234.66
2023-07-30T05:03:27.761Z,97240.72
2023-07-30T05:05:57.622Z,97240.94
2023-07-30T05:08:25.997Z,97235.41
2023-07-30T05:10:54.194Z,97224.72
2023-07-30T05:13:22.394Z,97237.34
2023-07-30T05:15:50.789Z,97230.44
2023-07-30T05:18:19.128Z,97233.28
2023-07-30T05:20:48.582Z,97231.38
2023-07-30T05:23:18.560Z,97225.75
2023-07-30T05:25:46.791Z,97234.03
2023-07-30T05:28:15.163Z,97169.38
2023-07-30T05:30:43.515Z,97239.16
2023-07-30T05:33:11.956Z,97242.34
2023-07-30T05:35:41.474Z,97241.59
2023-07-30T05:38:09.753Z,97248.84
2023-07-30T05:40:40.254Z,97153.50
2023-07-30T05:43:08.635Z,97241.41
2023-07-30T05:45:37.264Z,97248.84
2023-07-30T05:48:05.675Z,97196.97
2023-07-30T05:50:34.076Z,97248.94
2023-07-30T05:53:02.433Z,97171.03
2023-07-30T05:55:30.704Z,97246.47
2023-07-30T05:58:00.872Z,97229.81
2023-07-30T06:00:29.243Z,97253.84
2023-07-30T06:02:57.831Z,97244.47
2023-07-30T06:05:26.400Z,97248.72
2023-07-30T06:07:54.672Z,97246.28
2023-07-30T06:10:22.983Z,97246.91
2023-07-30T06:12:51.299Z,97196.09
2023-07-30T06:15:21.153Z,97253.41
2023-07-30T06:17:49.428Z,97258.31
2023-07-30T06:20:17.798Z,97274.25
2023-07-30T06:22:46.106Z,97279.22
2023-07-30T06:25:14.484Z,97277.63
2023-07-30T06:27:42.923Z,97270.63
2023-07-30T06:30:12.275Z,97222.88
2023-07-30T06:32:42.124Z,97258.41
2023-07-30T06:35:10.885Z,97280.41
2023-07-30T06:37:39.120Z,97274.88
2023-07-30T06:40:08.969Z,97285.72
2023-07-30T06:42:37.283Z,97230.03
2023-07-30T06:45:06.282Z,97283.94
2023-07-30T06:47:36.547Z,97246.06
2023-07-30T06:50:09.553Z,97282.66
2023-07-30T06:52:37.873Z,97256.41
2023-07-30T06:55:06.731Z,97277.22
2023-07-30T06:57:34.940Z,97262.69
2023-07-30T07:00:04.651Z,97262.00
2023-07-30T07:02:34.356Z,97284.00
2023-07-30T07:05:02.800Z,97278.66
2023-07-30T07:07:32.652Z,97280.81
2023-07-30T07:10:00.966Z,97276.00
2023-07-30T07:12:29.146Z,97050.56
2023-07-30T07:14:59.593Z,97233.38
2023-07-30T07:17:27.937Z,97269.25
2023-07-30T07:19:56.280Z,97255.47
2023-07-30T07:22:24.676Z,97269.31
2023-07-30T07:24:55.295Z,97262.28
2023-07-30T07:27:25.219Z,97252.72
2023-07-30T07:29:53.778Z,97254.50
2023-07-30T07:32:22.114Z,97260.59
2023-07-30T07:34:51.044Z,97275.97
2023-07-30T07:37:20.071Z,97277.81
2023-07-30T07:39:48.912Z,97281.66
2023-07-30T07:42:18.653Z,97270.09
2023-07-30T07:44:47.436Z,97266.09
2023-07-30T07:47:15.936Z,97265.00
2023-07-30T07:49:44.594Z,97264.13
2023-07-30T07:52:12.927Z,97250.88
2023-07-30T07:54:43.289Z,97253.56
2023-07-30T07:57:11.578Z,97270.59
2023-07-30T07:59:42.820Z,97274.63
2023-07-30T08:02:11.180Z,97276.31
2023-07-30T08:04:39.569Z,97285.34
2023-07-30T08:07:08.183Z,97284.56
2023-07-30T08:09:36.437Z,97284.88
2023-07-30T08:12:05.025Z,97291.84
2023-07-30T08:14:33.503Z,97286.66
2023-07-30T08:17:03.766Z,97285.22
2023-07-30T08:19:32.121Z,97280.69
2023-07-30T08:22:00.910Z,97274.19
2023-07-30T08:24:29.130Z,97266.63
2023-07-30T08:26:57.459Z,97267.50
2023-07-30T08:29:25.795Z,97262.47
2023-07-30T08:31:54.036Z,97255.56
2023-07-30T08:34:25.538Z,97252.38
2023-07-30T08:36:53.934Z,97254.53
2023-07-30T08:39:22.320Z,97243.47
2023-07-30T08:41:51.001Z,97254.75
2023-07-30T08:44:19.256Z,97255.91
2023-07-30T08:46:47.542Z,97255.38
2023-07-30T08:49:15.778Z,97256.81
2023-07-30T08:51:46.923Z,97252.69
2023-07-30T08:54:16.724Z,97246.47
2023-07-30T08:56:45.101Z,97212.97
2023-07-30T08:59:14.631Z,97238.16
2023-07-30T09:01:45.849Z,97242.53
2023-07-30T09:04:14.299Z,97246.38
2023-07-30T09:06:42.767Z,97224.19
2023-07-30T09:09:14.141Z,97254.72
2023-07-30T09:11:42.439Z,97266.53
2023-07-30T09:14:11.203Z,97257.78
2023-07-30T09:16:39.400Z,97257.13
2023-07-30T09:19:10.100Z,97232.94
2023-07-30T09:21:39.026Z,97240.84
2023-07-30T09:24:08.438Z,97252.91
2023-07-30T09:26:49.047Z,97204.59
2023-07-30T09:29:17.383Z,97256.94
2023-07-30T09:31:50.462Z,97244.25
2023-07-30T09:34:19.717Z,97242.56
2023-07-30T09:36:50.645Z,97229.56
2023-07-30T09:39:22.514Z,97248.78
2023-07-30T09:41:53.475Z,97244.81
2023-07-30T09:44:23.268Z,97235.50
2023-07-30T09:46:52.593Z,97230.13
2023-07-30T09:49:21.640Z,97220.69
2023-07-30T09:51:51.977Z,97223.78
2023-07-30T09:54:20.405Z,97227.16
2023-07-30T09:56:48.642Z,97213.16
2023-07-30T09:59:18.995Z,97236.00
2023-07-30T10:01:51.820Z,97220.06
2023-07-30T10:04:22.576Z,97217.09
2023-07-30T10:06:56.432Z,97224.78
2023-07-30T10:09:31.629Z,97212.38
2023-07-30T10:12:01.933Z,97215.28
2023-07-30T10:14:32.088Z,97150.13
2023-07-30T10:17:02.665Z,97174.91
2023-07-30T10:19:33.127Z,97210.41
2023-07-30T10:22:26.055Z,97196.16
2023-07-30T10:25:02.041Z,97162.22
2023-07-30T10:27:41.919Z,97210.63
2023-07-30T10:30:16.593Z,97167.13
2023-07-30T10:33:01.551Z,97196.22
2023-07-30T10:35:44.004Z,97204.25
2023-07-30T10:38:21.764Z,97204.94
2023-07-30T10:41:03.735Z,97151.81
2023-07-30T10:43:32.726Z,97203.59
2023-07-30T10:46:02.402Z,97209.09
2023-07-30T10:48:37.734Z,97202.13
2023-07-30T10:51:08.108Z,97202.97
2023-07-30T10:53:38.117Z,97179.44
2023-07-30T10:56:06.950Z,97186.31
2023-07-30T10:58:37.146Z,97180.16
2023-07-30T11:01:08.063Z,97199.09
2023-07-30T11:06:09.296Z,97176.31
2023-07-30T11:08:39.142Z,97192.81
2023-07-30T11:11:08.528Z,97188.59
2023-07-30T11:13:40.724Z,97181.44
2023-07-30T11:16:11.742Z,97177.75
2023-07-30T11:18:44.722Z,97149.16
2023-07-30T11:21:15.509Z,97182.63
2023-07-30T11:23:45.139Z,97122.28
2023-07-30T11:26:16.976Z,97136.63
2023-07-30T11:28:45.920Z,97168.97
2023-07-30T11:31:17.092Z,97147.78
2023-07-30T11:33:47.053Z,97126.56
2023-07-30T11:36:19.162Z,97162.19
2023-07-30T11:38:48.634Z,97150.88
2023-07-30T11:41:17.800Z,97154.63
2023-07-30T11:43:46.862Z,97144.28
2023-07-30T11:46:18.450Z,97158.13
2023-07-30T11:48:48.183Z,97160.47
2023-07-30T11:51:34.062Z,97138.25
2023-07-30T11:54:03.543Z,97141.97
2023-07-30T11:56:33.465Z,97157.00
2023-07-30T11:59:03.801Z,97147.44
2023-07-30T12:01:36.069Z,97155.34
2023-07-30T12:04:07.235Z,97146.41
2023-07-30T12:06:41.958Z,97145.72
2023-07-30T12:09:17.769Z,97144.84
2023-07-30T12:11:51.231Z,97128.47
2023-07-30T12:14:19.989Z,97123.34
2023-07-30T12:16:49.928Z,97122.78
2023-07-30T12:19:19.618Z,97128.81
2023-07-30T12:21:47.902Z,97049.84
2023-07-30T12:24:16.243Z,97118.06
2023-07-30T12:26:44.545Z,97115.25
2023-07-30T12:29:12.870Z,97073.25
2023-07-30T12:31:41.443Z,97120.78
2023-07-30T12:34:11.479Z,97083.03
2023-07-30T12:36:39.849Z,97097.59
2023-07-30T12:39:09.298Z,97112.09
2023-07-30T12:41:37.842Z,97105.78
2023-07-30T12:44:06.570Z,97105.03
2023-07-30T12:46:35.283Z,97084.38
2023-07-30T12:49:05.787Z,97087.69
2023-07-30T12:51:35.917Z,97101.59
2023-07-30T12:54:04.176Z,97096.03
2023-07-30T12:56:33.168Z,97092.00
2023-07-30T12:59:02.398Z,97093.69
2023-07-30T13:01:30.785Z,97086.69
2023-07-30T13:03:59.023Z,97090.41
2023-07-30T13:06:27.273Z,97089.22
2023-07-30T13:08:57.022Z,97092.94
2023-07-30T13:11:25.261Z,97078.28
2023-07-30T13:13:53.446Z,97080.63
2023-07-30T13:16:21.913Z,97063.13
2023-07-30T13:18:50.182Z,97080.28
2023-07-30T13:21:18.392Z,97078.78
2023-07-30T13:23:46.629Z,97070.19
2023-07-30T13:26:16.231Z,97075.91
2023-07-30T13:28:44.546Z,97070.34
2023-07-30T13:31:13.112Z,97058.72
2023-07-30T13:33:41.426Z,97062.94
2023-07-30T13:36:09.783Z,97072.22
2023-07-30T13:38:39.898Z,97071.69
2023-07-30T13:41:08.225Z,97079.09
2023-07-30T13:43:38.015Z,97075.69
2023-07-30T13:46:06.335Z,97076.69
2023-07-30T13:48:34.656Z,97065.88
2023-07-30T13:51:03.224Z,97043.03
2023-07-30T13:53:31.481Z,97063.84
2023-07-30T13:55:59.726Z,97046.09
2023-07-30T13:58:27.906Z,97043.78
2023-07-30T14:00:57.714Z,97037.38
2023-07-30T14:03:26.000Z,97041.41
2023-07-30T14:05:54.374Z,97037.84
2023-07-30T14:08:22.538Z,97040.91
2023-07-30T14:10:50.795Z,97046.72
2023-07-30T14:13:19.098Z,97024.97
2023-07-30T14:15:47.898Z,97034.66
2023-07-30T14:18:17.550Z,97029.47
2023-07-30T14:20:45.861Z,97046.66
2023-07-30T14:23:14.049Z,97008.84
2023-07-30T14:25:42.230Z,97005.28
2023-07-30T14:28:10.509Z,97006.16
2023-07-30T14:30:45.173Z,96996.72
2023-07-30T14:33:13.858Z,97000.81
2023-07-30T14:35:43.769Z,96998.91
2023-07-30T14:38:13.989Z,97004.69
2023-07-30T14:40:42.210Z,96972.50
2023-07-30T14:43:10.505Z,96999.66
2023-07-30T14:45:38.862Z,96999.19
2023-07-30T14:48:07.550Z,97007.72
2023-07-30T14:50:35.864Z,97008.16
2023-07-30T14:53:05.666Z,96993.94
2023-07-30T14:55:34.113Z,96971.28
2023-07-30T14:58:02.802Z,96927.25
2023-07-30T15:00:31.242Z,96991.00
2023-07-30T15:02:59.587Z,97024.66
2023-07-30T15:05:27.861Z,97020.91
2023-07-30T15:07:56.200Z,97020.31
2023-07-30T15:10:25.952Z,97024.47
2023-07-30T15:12:54.143Z,97033.13
2023-07-30T15:15:22.360Z,97068.94
2023-07-30T15:17:50.578Z,97067.13
2023-07-30T15:20:18.939Z,97078.63
2023-07-30T15:22:47.800Z,97082.69
2023-07-30T15:25:16.079Z,97075.00
2023-07-30T15:27:46.191Z,97081.28
2023-07-30T15:30:14.542Z,97084.50
2023-07-30T15:32:45.487Z,97105.63
2023-07-30T15:35:14.509Z,97094.13
2023-07-30T15:37:42.684Z,97108.25
2023-07-30T15:40:11.665Z,97111.94
2023-07-30T15:42:39.983Z,97100.53
2023-07-30T15:45:10.542Z,97083.75
2023-07-30T15:47:38.790Z,97088.22
2023-07-30T15:50:08.404Z,97097.50
2023-07-30T15:52:36.598Z,97030.38
2023-07-30T15:55:05.088Z,97103.47
2023-07-30T15:57:33.386Z,97090.81
2023-07-30T16:00:01.814Z,97103.16
2023-07-30T16:02:32.174Z,97100.69
2023-07-30T16:05:00.575Z,97084.63
2023-07-30T16:07:28.847Z,97086.19
2023-07-30T16:09:57.093Z,97110.28
2023-07-30T16:12:25.363Z,97060.91
2023-07-30T16:14:53.647Z,97118.19
2023-07-30T16:17:22.086Z,97107.97
2023-07-30T16:19:51.684Z,97129.53
2023-07-30T16:22:19.871Z,97129.50
2023-07-30T16:24:49.266Z,97135.34
2023-07-30T16:27:18.202Z,97129.50
2023-07-30T16:29:46.679Z,97122.97
2023-07-30T16:32:14.972Z,97131.03
2023-07-30T16:34:43.224Z,97121.47
2023-07-30T16:37:19.330Z,97133.22
2023-07-30T16:39:48.294Z,97137.81
2023-07-30T16:42:16.512Z,97144.16
2023-07-30T16:44:44.824Z,97153.34
2023-07-30T16:47:13.156Z,97159.25
2023-07-30T16:49:41.509Z,97101.16
2023-07-30T16:52:10.170Z,97139.66
2023-07-30T16:54:39.810Z,97126.97
2023-07-30T16:57:08.781Z,97125.63
2023-07-30T16:59:37.001Z,97151.84
2023-07-30T17:02:05.628Z,97141.50
2023-07-30T17:04:33.842Z,97153.44
2023-07-30T17:07:02.108Z,97146.00
2023-07-30T17:09:30.330Z,97147.66
2023-07-30T17:12:00.170Z,97140.13
2023-07-30T17:14:31.748Z,97154.97
2023-07-30T17:17:00.189Z,97164.16
2023-07-30T17:19:28.576Z,97176.19
2023-07-30T17:21:56.938Z,97160.69
2023-07-30T17:24:25.178Z,97177.91
2023-07-30T17:26:53.532Z,97177.25
2023-07-30T17:29:23.187Z,97181.94
2023-07-30T17:31:51.489Z,97196.03
2023-07-30T17:34:20.882Z,97171.09
2023-07-30T17:36:49.138Z,97181.72
2023-07-30T17:39:17.377Z,97195.84
2023-07-30T17:41:45.821Z,97223.22
2023-07-30T17:44:14.308Z,97226.44
2023-07-30T17:46:43.927Z,97226.56
2023-07-30T17:49:12.188Z,97190.50
2023-07-30T17:51:40.571Z,97233.59
2023-07-30T17:54:08.761Z,97243.66
2023-07-30T17:56:37.440Z,97219.34
2023-07-30T17:59:05.953Z,97243.34
2023-07-30T18:01:36.609Z,97245.09
2023-07-30T18:04:06.467Z,97235.97
2023-07-30T18:06:35.018Z,97237.41
2023-07-30T18:09:04.603Z,97243.88
2023-07-30T18:11:32.708Z,97240.59
2023-07-30T18:14:01.021Z,97229.81
2023-07-30T18:16:29.301Z,97245.81
2023-07-30T18:18:57.642Z,97247.63
2023-07-30T18:21:27.386Z,97251.28
2023-07-30T18:23:54.606Z,97249.47
2023-07-30T18:26:22.901Z,97269.94
2023-07-30T18:28:51.644Z,97279.28
2023-07-30T18:31:20.028Z,97287.88
2023-07-30T18:33:48.432Z,97289.97
2023-07-30T18:36:16.823Z,97300.34
2023-07-30T18:38:46.465Z,97263.34
2023-07-30T18:41:14.699Z,97306.69
2023-07-30T18:43:42.863Z,97299.28
2023-07-30T18:46:11.196Z,97309.88
2023-07-30T18:48:39.508Z,97269.50
2023-07-30T18:51:07.950Z,97299.63
2023-07-30T18:53:36.712Z,97311.03
2023-07-30T18:56:06.845Z,97299.28
2023-07-30T18:58:35.170Z,97313.47
2023-07-30T19:01:03.434Z,97323.31
2023-07-30T19:03:32.058Z,97321.22
2023-07-30T19:06:01.962Z,97327.69
2023-07-30T19:08:30.251Z,97330.84
2023-07-30T19:10:58.492Z,97337.03
2023-07-30T19:13:28.629Z,97346.50
2023-07-30T19:15:58.720Z,97288.75
2023-07-30T19:18:27.145Z,97352.06
2023-07-30T19:20:55.371Z,97338.56
2023-07-30T19:23:23.787Z,97361.88
2023-07-30T19:25:53.065Z,97364.22
2023-07-30T19:28:21.843Z,97367.81
2023-07-30T19:30:51.627Z,97371.69
2023-07-30T19:33:20.051Z,97367.72
2023-07-30T19:35:51.786Z,97372.00
2023-07-30T19:38:23.466Z,97369.75
2023-07-30T19:40:55.791Z,97375.94
2023-07-30T19:43:24.473Z,97352.16
2023-07-30T19:45:55.034Z,97388.00
2023-07-30T19:48:24.059Z,97369.19
2023-07-30T19:50:53.797Z,97382.63
2023-07-30T19:53:22.459Z,97386.41
2023-07-30T19:55:50.735Z,97381.69
2023-07-30T19:58:29.417Z,97367.72
2023-07-30T20:01:01.089Z,97388.84
2023-07-30T20:03:30.769Z,97393.19
2023-07-30T20:06:01.147Z,97392.38
2023-07-30T20:08:29.750Z,97343.91
2023-07-30T20:10:58.660Z,97387.75
2023-07-30T20:13:26.929Z,97376.56
2023-07-30T20:15:56.877Z,97382.13
2023-07-30T20:18:27.189Z,97382.84
2023-07-30T20:20:55.816Z,97370.94
2023-07-30T20:23:25.623Z,97387.72
2023-07-30T20:25:54.108Z,97382.84
2023-07-30T20:28:23.204Z,97381.75
2023-07-30T20:30:51.913Z,97386.09
2023-07-30T20:33:20.225Z,97390.59
2023-07-30T20:35:52.320Z,97363.84
2023-07-30T20:38:20.588Z,97392.13
2023-07-30T20:40:48.895Z,97383.13
2023-07-30T20:43:17.180Z,97385.38
2023-07-30T20:45:45.449Z,97394.34
2023-07-30T20:48:14.328Z,97381.09
2023-07-30T20:50:43.152Z,97327.13
2023-07-30T20:53:15.466Z,97400.53
2023-07-30T20:55:43.927Z,97382.06
2023-07-30T20:58:12.487Z,97380.44
2023-07-30T21:00:40.786Z,97402.53
2023-07-30T21:03:09.256Z,97409.06
2023-07-30T21:05:37.527Z,97380.81
2023-07-30T21:08:06.112Z,97412.63
2023-07-30T21:10:35.953Z,97382.84
2023-07-30T21:13:04.769Z,97411.25
2023-07-30T21:15:33.108Z,97325.81
2023-07-30T21:18:02.599Z,97402.03
2023-07-30T21:20:30.915Z,97334.66
2023-07-30T21:22:59.303Z,97408.81
2023-07-30T21:25:27.675Z,97336.22
2023-07-30T21:27:57.704Z,97387.91
2023-07-30T21:30:26.102Z,97362.72
2023-07-30T21:32:54.423Z,97399.22
2023-07-30T21:35:22.951Z,97408.38
2023-07-30T21:37:51.596Z,97412.97
2023-07-30T21:40:19.857Z,97386.47
2023-07-30T21:42:48.113Z,97417.53
2023-07-30T21:45:17.885Z,97384.84
2023-07-30T21:47:46.110Z,97419.78
2023-07-30T21:50:14.455Z,97419.78
2023-07-30T21:52:44.055Z,97426.81
2023-07-30T21:55:12.348Z,97428.94
2023-07-30T21:57:40.594Z,97423.91
2023-07-30T22:00:10.357Z,97430.09
2023-07-30T22:02:40.104Z,97400.81
2023-07-30T22:05:08.905Z,97433.59
2023-07-30T22:07:37.119Z,97390.59
2023-07-30T22:10:06.118Z,97372.34
2023-07-30T22:12:34.394Z,97432.84
2023-07-30T22:15:02.713Z,97432.84
2023-07-30T22:17:33.092Z,97417.63
2023-07-30T22:20:03.283Z,97399.94
2023-07-30T22:22:31.678Z,97425.19
2023-07-30T22:25:00.021Z,97414.53
2023-07-30T22:27:28.296Z,97429.34
2023-07-30T22:29:56.576Z,97428.16
2023-07-30T22:32:25.043Z,97425.31
2023-07-30T22:34:53.531Z,97189.81
2023-07-30T22:37:23.250Z,97426.69
2023-07-30T22:39:51.530Z,97422.22
2023-07-30T22:42:21.350Z,97414.34
2023-07-30T22:44:49.602Z,97413.16
2023-07-30T22:47:17.869Z,97417.19
2023-07-30T22:49:46.292Z,97424.94
2023-07-30T22:52:14.555Z,97409.34
2023-07-30T22:54:44.255Z,97403.19
2023-07-30T22:57:12.538Z,97398.16
2023-07-30T22:59:40.852Z,97423.13
2023-07-30T23:02:09.174Z,97429.69
2023-07-30T23:04:37.603Z,97385.72
2023-07-30T23:07:06.651Z,97378.56
2023-07-30T23:09:35.156Z,97376.75
2023-07-30T23:12:05.247Z,97374.38
2023-07-30T23:14:33.529Z,97406.06
2023-07-30T23:17:01.859Z,97423.00
2023-07-30T23:19:30.078Z,97433.81
2023-07-30T23:21:58.269Z,97405.72
2023-07-30T23:24:26.542Z,97404.59
2023-07-30T23:26:54.803Z,97432.50
2023-07-30T23:29:24.459Z,97436.13
2023-07-30T23:31:53.480Z,97416.53
2023-07-30T23:34:21.649Z,97423.25
2023-07-30T23:36:49.838Z,97429.47
2023-07-30T23:39:18.161Z,97422.03
2023-07-30T23:41:46.417Z,97421.59
2023-07-30T23:44:14.689Z,97436.47
2023-07-30T23:46:45.940Z,97428.72
2023-07-30T23:49:14.333Z,97408.00
2023-07-30T23:51:42.594Z,97430.25
2023-07-30T23:54:10.793Z,97409.97
2023-07-30T23:56:39.405Z,97428.53
2023-07-30T23:59:08.101Z,97428.53
